createdAt,value
2019-04-04T00:00:52.781Z,76.11
2019-04-04T00:03:26.852Z,76.41
2019-04-04T00:05:58.492Z,76.78
2019-04-04T00:08:31.643Z,76.27
2019-04-04T00:11:04.133Z,75.38
2019-04-04T00:13:40.026Z,75.54
2019-04-04T00:16:11.676Z,76.49
2019-04-04T00:18:43.323Z,76.38
2019-04-04T00:21:14.890Z,76.81
2019-04-04T00:23:46.469Z,76.68
2019-04-04T00:26:18.130Z,76.47
2019-04-04T00:28:50.697Z,76.04
2019-04-04T00:31:22.244Z,76.47
2019-04-04T00:33:55.804Z,76.39
2019-04-04T00:36:27.114Z,76.00
2019-04-04T00:38:58.620Z,76.17
2019-04-04T00:41:30.137Z,76.61
2019-04-04T00:44:01.669Z,76.27
2019-04-04T00:46:33.183Z,76.55
2019-04-04T00:49:05.398Z,76.76
2019-04-04T00:51:38.958Z,77.03
2019-04-04T00:54:10.295Z,76.72
2019-04-04T00:56:41.810Z,76.42
2019-04-04T00:59:13.407Z,75.94
2019-04-04T01:01:44.949Z,76.13
2019-04-04T01:04:16.460Z,76.14
2019-04-04T01:06:47.996Z,76.02
2019-04-04T01:09:19.589Z,75.41
2019-04-04T01:11:51.784Z,76.20
2019-04-04T01:14:23.391Z,76.52
2019-04-04T01:16:55.030Z,76.46
2019-04-04T01:19:27.105Z,76.83
2019-04-04T01:21:58.692Z,77.14
2019-04-04T01:24:30.233Z,76.86
2019-04-04T01:27:02.029Z,76.64
2019-04-04T01:29:33.658Z,76.61
2019-04-04T01:32:05.215Z,76.52
2019-04-04T01:34:37.099Z,76.52
2019-04-04T01:37:08.661Z,76.58
2019-04-04T01:39:40.222Z,77.30
2019-04-04T01:42:11.754Z,76.78
2019-04-04T01:44:43.296Z,76.67
2019-04-04T01:47:16.656Z,76.70
2019-04-04T01:49:48.107Z,76.78
2019-04-04T01:52:19.697Z,76.87
2019-04-04T01:54:51.250Z,77.65
2019-04-04T01:57:22.810Z,77.34
2019-04-04T01:59:54.362Z,76.87
2019-04-04T02:02:25.946Z,76.73
2019-04-04T02:04:57.523Z,76.30
2019-04-04T02:07:29.797Z,75.85
2019-04-04T02:10:03.265Z,75.03
2019-04-04T02:12:35.271Z,75.09
2019-04-04T02:15:08.161Z,74.98
2019-04-04T02:17:39.754Z,75.56
2019-04-04T02:20:11.320Z,75.95
2019-04-04T02:22:42.944Z,76.12
2019-04-04T02:25:14.498Z,75.83
2019-04-04T02:27:46.109Z,75.65
2019-04-04T02:30:17.673Z,76.17
2019-04-04T02:32:49.305Z,76.36
2019-04-04T02:35:20.866Z,76.68
2019-04-04T02:37:55.040Z,76.51
2019-04-04T02:40:25.681Z,76.61
2019-04-04T02:42:57.227Z,76.65
2019-04-04T02:45:28.815Z,76.77
2019-04-04T02:48:00.363Z,77.10
2019-04-04T02:50:35.546Z,76.90
2019-04-04T02:53:05.208Z,76.73
2019-04-04T02:55:36.753Z,77.37
2019-04-04T02:58:13.870Z,77.34
2019-04-04T03:00:42.602Z,76.84
2019-04-04T03:03:14.170Z,76.87
2019-04-04T03:05:50.792Z,76.75
2019-04-04T03:08:20.052Z,76.46
2019-04-04T03:10:51.607Z,76.75
2019-04-04T03:13:23.168Z,76.88
2019-04-04T03:15:54.716Z,76.64
2019-04-04T03:18:26.331Z,76.41
2019-04-04T03:20:57.927Z,76.30
2019-04-04T03:23:32.774Z,76.72
2019-04-04T03:26:03.284Z,76.86
2019-04-04T03:28:34.865Z,76.43
2019-04-04T03:31:06.431Z,77.44
2019-04-04T03:33:38.026Z,77.60
2019-04-04T03:36:09.581Z,77.46
2019-04-04T03:38:41.170Z,77.11
2019-04-04T03:41:12.702Z,76.70
2019-04-04T03:43:48.072Z,77.13
2019-04-04T03:46:17.537Z,77.07
2019-04-04T03:48:50.856Z,76.75
2019-04-04T03:51:22.397Z,76.85
2019-04-04T03:53:56.938Z,76.42
2019-04-04T03:56:33.345Z,75.69
2019-04-04T03:59:01.776Z,76.14
2019-04-04T04:01:33.352Z,77.11
2019-04-04T04:04:04.909Z,77.54
2019-04-04T04:06:41.404Z,77.39
2019-04-04T04:09:09.735Z,77.26
2019-04-04T04:11:41.304Z,76.79
2019-04-04T04:14:12.889Z,76.30
2019-04-04T04:16:44.479Z,76.24
2019-04-04T04:19:16.049Z,76.44
2019-04-04T04:21:47.647Z,75.98
2019-04-04T04:24:19.217Z,76.04
2019-04-04T04:26:50.790Z,76.08
2019-04-04T04:29:22.374Z,76.62
2019-04-04T04:31:54.058Z,75.75
2019-04-04T04:34:25.714Z,75.73
2019-04-04T04:36:57.317Z,75.37
2019-04-04T04:39:28.861Z,75.00
2019-04-04T04:42:00.730Z,75.21
2019-04-04T04:44:32.323Z,74.03
2019-04-04T04:47:03.919Z,74.00
2019-04-04T04:49:36.405Z,74.33
2019-04-04T04:52:08.163Z,75.11
2019-04-04T04:54:40.791Z,75.91
2019-04-04T04:57:28.194Z,76.05
2019-04-04T04:59:45.707Z,76.38
2019-04-04T05:02:17.313Z,76.39
2019-04-04T05:04:48.900Z,76.58
2019-04-04T05:07:20.553Z,76.92
2019-04-04T05:09:52.160Z,76.97
2019-04-04T05:12:23.777Z,77.15
2019-04-04T05:14:59.259Z,77.26
2019-04-04T05:17:30.946Z,76.97
2019-04-04T05:20:02.570Z,77.19
2019-04-04T05:22:39.722Z,77.74
2019-04-04T05:25:10.807Z,78.01
2019-04-04T05:27:42.415Z,77.90
2019-04-04T05:30:16.066Z,78.15
2019-04-04T05:32:47.472Z,78.40
2019-04-04T05:35:20.915Z,78.28
2019-04-04T05:37:52.531Z,78.72
2019-04-04T05:40:24.239Z,78.82
2019-04-04T05:42:55.990Z,78.62
2019-04-04T05:45:27.550Z,78.44
2019-04-04T05:47:59.827Z,78.60
2019-04-04T05:50:31.561Z,78.42
2019-04-04T05:53:04.292Z,78.50
2019-04-04T05:55:36.505Z,78.35
2019-04-04T05:58:08.097Z,78.34
2019-04-04T06:00:41.327Z,78.41
2019-04-04T06:03:13.028Z,78.27
2019-04-04T06:05:46.225Z,78.19
2019-04-04T06:08:17.796Z,78.47
2019-04-04T06:10:50.086Z,78.12
2019-04-04T06:13:22.395Z,78.30
2019-04-04T06:15:53.951Z,78.47
2019-04-04T06:18:25.584Z,78.28
2019-04-04T06:20:57.170Z,78.41
2019-04-04T06:23:28.753Z,78.38
2019-04-04T06:26:00.387Z,78.37
2019-04-04T06:28:32.909Z,78.57
2019-04-04T06:31:04.506Z,78.43
2019-04-04T06:33:36.084Z,78.41
2019-04-04T06:36:07.664Z,78.75
2019-04-04T06:38:39.271Z,78.82
2019-04-04T06:41:10.879Z,78.70
2019-04-04T06:43:42.483Z,78.84
2019-04-04T06:46:14.096Z,79.01
2019-04-04T06:48:45.750Z,79.06
2019-04-04T06:51:17.389Z,78.97
2019-04-04T06:53:48.948Z,78.56
2019-04-04T06:56:20.536Z,78.80
2019-04-04T06:58:52.141Z,78.61
2019-04-04T07:01:25.362Z,78.50
2019-04-04T07:03:59.126Z,78.51
2019-04-04T07:06:30.399Z,78.57
2019-04-04T07:09:02.015Z,78.23
2019-04-04T07:11:35.221Z,78.36
2019-04-04T07:14:07.099Z,78.50
2019-04-04T07:16:38.699Z,78.26
2019-04-04T07:19:14.314Z,78.13
2019-04-04T07:21:43.619Z,78.37
2019-04-04T07:24:18.395Z,78.55
2019-04-04T07:26:50.043Z,78.01
2019-04-04T07:29:22.994Z,78.00
2019-04-04T07:31:55.037Z,78.09
2019-04-04T07:34:27.601Z,78.17
2019-04-04T07:36:59.287Z,78.18
2019-04-04T07:39:32.689Z,78.06
2019-04-04T07:42:04.200Z,77.73
2019-04-04T07:44:35.887Z,78.24
2019-04-04T07:47:07.488Z,77.95
2019-04-04T07:49:40.278Z,78.10
2019-04-04T07:52:13.024Z,78.24
2019-04-04T07:54:44.603Z,77.69
2019-04-04T07:57:17.299Z,77.14
2019-04-04T07:59:49.580Z,76.81
2019-04-04T08:02:21.202Z,76.52
2019-04-04T08:04:52.861Z,76.75
2019-04-04T08:07:24.458Z,76.57
2019-04-04T08:09:56.085Z,77.18
2019-04-04T08:12:27.665Z,77.37
2019-04-04T08:14:59.252Z,77.33
2019-04-04T08:17:30.834Z,77.53
2019-04-04T08:20:02.488Z,77.70
2019-04-04T08:22:34.086Z,77.68
2019-04-04T08:25:05.784Z,77.65
2019-04-04T08:27:37.433Z,78.03
2019-04-04T08:30:09.316Z,78.41
2019-04-04T08:32:40.933Z,78.56
2019-04-04T08:35:12.641Z,78.84
2019-04-04T08:37:44.237Z,79.53
2019-04-04T08:40:16.213Z,79.09
2019-04-04T08:42:47.792Z,78.57
2019-04-04T08:45:19.418Z,79.19
2019-04-04T08:47:51.023Z,79.38
2019-04-04T08:50:22.649Z,79.66
2019-04-04T08:52:54.232Z,79.31
2019-04-04T08:55:25.836Z,78.62
2019-04-04T08:57:59.075Z,79.18
2019-04-04T09:00:30.658Z,79.69
2019-04-04T09:03:02.227Z,79.52
2019-04-04T09:05:33.849Z,78.74
2019-04-04T09:08:05.420Z,78.56
2019-04-04T09:10:36.983Z,78.70
2019-04-04T09:13:08.579Z,79.17
2019-04-04T09:15:40.189Z,78.63
2019-04-04T09:18:11.844Z,78.35
2019-04-04T09:20:43.470Z,78.29
2019-04-04T09:23:15.098Z,78.63
2019-04-04T09:25:46.739Z,77.84
2019-04-04T09:28:18.371Z,77.22
2019-04-04T09:30:49.969Z,77.71
2019-04-04T09:33:21.536Z,77.06
2019-04-04T09:35:53.143Z,76.61
2019-04-04T09:38:24.767Z,76.96
2019-04-04T09:40:56.348Z,76.64
2019-04-04T09:43:27.942Z,77.34
2019-04-04T09:45:59.539Z,76.67
2019-04-04T09:48:31.197Z,76.13
2019-04-04T09:51:02.803Z,77.47
2019-04-04T09:53:34.402Z,77.54
2019-04-04T09:56:06.021Z,77.65
2019-04-04T09:58:37.624Z,76.83
2019-04-04T10:01:10.316Z,77.15
2019-04-04T10:03:41.961Z,77.93
2019-04-04T10:06:13.549Z,77.50
2019-04-04T10:08:45.536Z,76.90
2019-04-04T10:11:18.225Z,76.86
2019-04-04T10:13:49.843Z,76.96
2019-04-04T10:16:21.403Z,76.75
2019-04-04T10:18:53.500Z,76.03
2019-04-04T10:21:25.073Z,75.76
2019-04-04T10:23:56.661Z,76.37
2019-04-04T10:26:28.273Z,76.66
2019-04-04T10:28:59.870Z,76.23
2019-04-04T10:31:31.446Z,76.54
2019-04-04T10:34:03.007Z,76.35
2019-04-04T10:36:34.602Z,76.02
2019-04-04T10:39:11.968Z,75.81
2019-04-04T10:41:44.029Z,76.17
2019-04-04T10:44:16.605Z,75.41
2019-04-04T10:46:48.177Z,75.00
2019-04-04T10:49:19.789Z,75.67
2019-04-04T10:51:51.334Z,75.40
2019-04-04T10:54:22.910Z,75.84
2019-04-04T10:56:54.495Z,75.82
2019-04-04T10:59:27.139Z,75.92
2019-04-04T11:02:00.999Z,76.23
2019-04-04T11:04:32.127Z,75.92
2019-04-04T11:07:03.799Z,75.92
2019-04-04T11:09:41.857Z,75.10
2019-04-04T11:12:08.636Z,75.89
2019-04-04T11:14:40.257Z,76.15
2019-04-04T11:17:11.850Z,76.09
2019-04-04T11:19:43.639Z,76.11
2019-04-04T11:22:15.199Z,75.89
2019-04-04T11:24:46.774Z,76.00
2019-04-04T11:27:18.428Z,75.45
2019-04-04T11:29:50.022Z,75.65
2019-04-04T11:32:21.644Z,75.17
2019-04-04T11:34:53.714Z,77.41
2019-04-04T11:37:27.199Z,77.01
2019-04-04T11:39:58.852Z,76.83
2019-04-04T11:42:30.440Z,76.86
2019-04-04T11:45:04.475Z,77.20
2019-04-04T11:47:36.083Z,76.69
2019-04-04T11:50:08.868Z,77.36
2019-04-04T11:52:40.499Z,77.80
2019-04-04T11:55:12.211Z,77.24
2019-04-04T11:57:43.793Z,78.37
2019-04-04T12:00:21.082Z,77.34
2019-04-04T12:02:52.699Z,78.42
2019-04-04T12:05:24.278Z,78.62
2019-04-04T12:07:55.893Z,78.13
2019-04-04T12:10:27.507Z,77.67
2019-04-04T12:12:59.096Z,77.84
2019-04-04T12:15:30.709Z,78.52
2019-04-04T12:18:02.319Z,78.17
2019-04-04T12:20:35.043Z,78.13
2019-04-04T12:23:06.622Z,78.12
2019-04-04T12:25:38.300Z,78.52
2019-04-04T12:28:09.874Z,77.63
2019-04-04T12:30:41.480Z,77.70
2019-04-04T12:33:13.078Z,78.17
2019-04-04T12:35:44.677Z,77.99
2019-04-04T12:38:16.231Z,78.27
2019-04-04T12:40:47.839Z,77.70
2019-04-04T12:43:19.413Z,78.19
2019-04-04T12:45:51.049Z,78.44
2019-04-04T12:48:22.612Z,78.35
2019-04-04T12:50:54.225Z,78.63
2019-04-04T12:53:25.901Z,78.09
2019-04-04T12:55:57.515Z,78.84
2019-04-04T12:58:29.062Z,78.92
2019-04-04T13:01:00.797Z,79.06
2019-04-04T13:03:32.626Z,79.48
2019-04-04T13:06:04.202Z,79.67
2019-04-04T13:08:36.742Z,78.26
2019-04-04T13:11:09.385Z,78.92
2019-04-04T13:13:41.006Z,79.20
2019-04-04T13:16:12.611Z,79.65
2019-04-04T13:18:44.244Z,79.25
2019-04-04T13:21:15.816Z,79.26
2019-04-04T13:23:47.412Z,79.22
2019-04-04T13:26:18.989Z,79.46
2019-04-04T13:28:50.605Z,79.59
2019-04-04T13:31:22.169Z,79.67
2019-04-04T13:33:53.847Z,79.21
2019-04-04T13:36:25.460Z,79.81
2019-04-04T13:38:57.088Z,79.63
2019-04-04T13:41:28.786Z,79.69
2019-04-04T13:44:00.374Z,79.10
2019-04-04T13:46:32.046Z,79.36
2019-04-04T13:49:03.677Z,79.65
2019-04-04T13:51:35.260Z,79.25
2019-04-04T13:54:06.858Z,80.14
2019-04-04T13:56:38.469Z,78.92
2019-04-04T13:59:10.077Z,78.42
2019-04-04T14:01:42.916Z,78.13
2019-04-04T14:04:14.731Z,77.28
2019-04-04T14:06:46.326Z,77.69
2019-04-04T14:09:17.960Z,78.78
2019-04-04T14:11:49.501Z,78.88
2019-04-04T14:14:21.125Z,78.79
2019-04-04T14:16:52.715Z,78.70
2019-04-04T14:19:24.361Z,78.94
2019-04-04T14:21:55.968Z,78.23
2019-04-04T14:24:27.586Z,78.13
2019-04-04T14:26:59.140Z,78.62
2019-04-04T14:29:30.823Z,78.83
2019-04-04T14:32:02.418Z,79.62
2019-04-04T14:34:34.050Z,79.50
2019-04-04T14:37:05.629Z,79.93
2019-04-04T14:39:37.294Z,80.01
2019-04-04T14:42:08.969Z,80.00
2019-04-04T14:44:40.628Z,78.70
2019-04-04T14:47:15.850Z,78.97
2019-04-04T14:49:46.053Z,78.95
2019-04-04T14:52:19.826Z,79.66
2019-04-04T14:54:51.174Z,79.83
2019-04-04T14:57:22.859Z,78.71
2019-04-04T14:59:54.436Z,79.55
2019-04-04T15:02:26.046Z,78.81
2019-04-04T15:04:57.801Z,79.04
2019-04-04T15:07:29.447Z,78.61
2019-04-04T15:10:01.059Z,78.79
2019-04-04T15:12:32.680Z,78.55
2019-04-04T15:15:04.469Z,78.71
2019-04-04T15:17:36.062Z,77.76
2019-04-04T15:20:08.175Z,78.04
2019-04-04T15:22:39.742Z,77.63
2019-04-04T15:25:11.346Z,77.61
2019-04-04T15:27:42.970Z,77.99
2019-04-04T15:30:14.791Z,77.04
2019-04-04T15:32:46.387Z,77.02
2019-04-04T15:35:18.066Z,77.18
2019-04-04T15:37:49.610Z,76.31
2019-04-04T15:40:22.353Z,77.19
2019-04-04T15:42:54.092Z,76.23
2019-04-04T15:45:25.690Z,76.57
2019-04-04T15:47:57.376Z,77.19
2019-04-04T15:50:29.012Z,77.26
2019-04-04T15:53:00.816Z,76.98
2019-04-04T15:55:32.579Z,76.98
2019-04-04T15:58:04.207Z,76.72
2019-04-04T16:00:36.001Z,77.51
2019-04-04T16:03:07.646Z,77.14
2019-04-04T16:05:39.420Z,77.07
2019-04-04T16:08:11.157Z,77.03
2019-04-04T16:10:42.726Z,77.08
2019-04-04T16:13:16.040Z,76.85
2019-04-04T16:15:47.815Z,77.18
2019-04-04T16:18:19.545Z,77.42
2019-04-04T16:20:51.390Z,77.38
2019-04-04T16:23:23.041Z,77.55
2019-04-04T16:25:54.624Z,77.41
2019-04-04T16:28:26.301Z,78.20
2019-04-04T16:30:58.043Z,78.25
2019-04-04T16:33:29.679Z,78.23
2019-04-04T16:36:01.354Z,78.21
2019-04-04T16:38:32.993Z,78.20
2019-04-04T16:41:05.863Z,78.78
2019-04-04T16:43:38.650Z,78.78
2019-04-04T16:46:10.307Z,79.09
2019-04-04T16:48:42.002Z,78.91
2019-04-04T16:51:13.635Z,79.09
2019-04-04T16:53:45.467Z,78.87
2019-04-04T16:56:17.025Z,78.89
2019-04-04T16:58:48.649Z,79.10
2019-04-04T17:01:20.373Z,78.52
2019-04-04T17:04:01.427Z,78.87
2019-04-04T17:06:25.873Z,78.21
2019-04-04T17:08:57.451Z,77.84
2019-04-04T17:11:29.137Z,78.03
2019-04-04T17:14:00.733Z,78.40
2019-04-04T17:16:32.324Z,78.77
2019-04-04T17:19:03.963Z,78.98
2019-04-04T17:21:35.737Z,78.08
2019-04-04T17:24:07.948Z,78.21
2019-04-04T17:26:40.487Z,77.62
2019-04-04T17:29:13.216Z,77.94
2019-04-04T17:31:44.779Z,77.63
2019-04-04T17:34:17.009Z,77.38
2019-04-04T17:36:49.122Z,77.40
2019-04-04T17:39:20.812Z,77.44
2019-04-04T17:41:52.397Z,77.97
2019-04-04T17:44:24.095Z,78.18
2019-04-04T17:46:56.126Z,77.68
2019-04-04T17:49:28.285Z,77.52
2019-04-04T17:51:59.911Z,77.31
2019-04-04T17:54:31.662Z,76.40
2019-04-04T17:57:03.299Z,76.04
2019-04-04T17:59:34.847Z,75.63
2019-04-04T18:02:06.523Z,75.85
2019-04-04T18:04:47.739Z,76.01
2019-04-04T18:07:11.445Z,76.17
2019-04-04T18:09:45.469Z,76.44
2019-04-04T18:12:17.032Z,76.62
2019-04-04T18:14:48.736Z,76.05
2019-04-04T18:17:20.362Z,75.95
2019-04-04T18:19:52.005Z,76.22
2019-04-04T18:22:23.587Z,76.68
2019-04-04T18:24:55.198Z,76.51
2019-04-04T18:27:26.813Z,76.96
2019-04-04T18:29:58.437Z,76.92
2019-04-04T18:32:30.023Z,76.89
2019-04-04T18:35:01.618Z,77.11
2019-04-04T18:37:33.283Z,77.47
2019-04-04T18:40:06.061Z,76.91
2019-04-04T18:42:37.637Z,77.07
2019-04-04T18:45:09.626Z,77.10
2019-04-04T18:47:41.237Z,77.66
2019-04-04T18:50:14.092Z,77.63
2019-04-04T18:52:45.798Z,77.93
2019-04-04T18:55:20.158Z,78.02
2019-04-04T18:57:50.720Z,77.81
2019-04-04T19:00:22.549Z,78.22
2019-04-04T19:02:54.190Z,78.31
2019-04-04T19:05:25.845Z,78.02
2019-04-04T19:07:57.482Z,77.78
2019-04-04T19:10:29.127Z,78.11
2019-04-04T19:13:05.545Z,78.28
2019-04-04T19:15:34.169Z,78.41
2019-04-04T19:18:07.674Z,78.29
2019-04-04T19:20:39.267Z,78.21
2019-04-04T19:23:11.020Z,78.18
2019-04-04T19:25:42.599Z,78.55
2019-04-04T19:28:14.236Z,78.42
2019-04-04T19:30:45.838Z,78.19
2019-04-04T19:33:17.459Z,78.27
2019-04-04T19:35:49.066Z,78.37
2019-04-04T19:38:20.661Z,78.59
2019-04-04T19:40:52.439Z,78.75
2019-04-04T19:43:24.073Z,78.78
2019-04-04T19:45:55.678Z,78.72
2019-04-04T19:48:27.266Z,78.54
2019-04-04T19:50:58.873Z,78.42
2019-04-04T19:53:30.504Z,78.24
2019-04-04T19:56:02.147Z,78.26
2019-04-04T19:58:33.773Z,78.65
2019-04-04T20:01:06.389Z,78.16
2019-04-04T20:03:37.990Z,78.10
2019-04-04T20:06:09.594Z,78.34
2019-04-04T20:08:41.218Z,78.39
2019-04-04T20:11:13.840Z,78.23
2019-04-04T20:13:45.443Z,78.18
2019-04-04T20:16:17.092Z,78.18
2019-04-04T20:18:48.764Z,77.95
2019-04-04T20:21:20.404Z,77.60
2019-04-04T20:23:52.030Z,77.73
2019-04-04T20:26:23.712Z,77.56
2019-04-04T20:28:55.328Z,77.59
2019-04-04T20:31:26.930Z,77.71
2019-04-04T20:34:01.779Z,77.52
2019-04-04T20:36:31.833Z,77.51
2019-04-04T20:39:04.646Z,77.63
2019-04-04T20:41:36.926Z,77.72
2019-04-04T20:44:08.620Z,77.56
2019-04-04T20:46:40.251Z,77.55
2019-04-04T20:49:11.849Z,77.39
2019-04-04T20:51:43.465Z,77.29
2019-04-04T20:54:15.087Z,77.92
2019-04-04T20:56:46.682Z,77.72
2019-04-04T20:59:18.362Z,77.55
2019-04-04T21:01:49.978Z,77.40
2019-04-04T21:04:21.594Z,77.31
2019-04-04T21:06:53.174Z,77.35
2019-04-04T21:09:24.782Z,77.43
2019-04-04T21:11:56.389Z,77.80
2019-04-04T21:14:28.412Z,77.87
2019-04-04T21:17:00.174Z,77.95
2019-04-04T21:19:31.757Z,77.80
2019-04-04T21:22:03.370Z,77.67
2019-04-04T21:24:34.954Z,77.50
2019-04-04T21:27:06.711Z,77.62
2019-04-04T21:29:38.274Z,77.89
2019-04-04T21:32:09.921Z,78.02
2019-04-04T21:34:41.527Z,78.01
2019-04-04T21:37:13.136Z,77.93
2019-04-04T21:39:44.740Z,77.86
2019-04-04T21:42:16.344Z,77.65
2019-04-04T21:44:47.961Z,77.47
2019-04-04T21:47:19.559Z,77.64
2019-04-04T21:49:51.135Z,77.54
2019-04-04T21:52:22.826Z,77.80
2019-04-04T21:54:55.645Z,77.43
2019-04-04T21:57:27.320Z,77.38
2019-04-04T21:59:58.961Z,77.42
2019-04-04T22:02:30.750Z,77.21
2019-04-04T22:05:02.338Z,77.23
2019-04-04T22:07:34.009Z,77.37
2019-04-04T22:10:06.582Z,77.54
2019-04-04T22:12:38.288Z,77.51
2019-04-04T22:15:10.286Z,77.34
2019-04-04T22:17:41.944Z,77.10
2019-04-04T22:20:13.530Z,77.03
2019-04-04T22:22:45.144Z,77.23
2019-04-04T22:25:16.721Z,77.09
2019-04-04T22:27:48.348Z,77.43
2019-04-04T22:30:20.022Z,77.78
2019-04-04T22:32:51.637Z,77.33
2019-04-04T22:35:23.218Z,77.34
2019-04-04T22:37:54.833Z,77.37
2019-04-04T22:40:26.445Z,77.78
2019-04-04T22:42:58.071Z,77.73
2019-04-04T22:45:30.871Z,77.89
2019-04-04T22:48:03.549Z,77.50
2019-04-04T22:50:35.106Z,77.24
2019-04-04T22:53:06.719Z,77.39
2019-04-04T22:55:38.312Z,77.59
2019-04-04T22:58:09.941Z,77.70
2019-04-04T23:00:41.514Z,78.14
2019-04-04T23:03:13.264Z,77.74
2019-04-04T23:05:44.930Z,77.62
2019-04-04T23:08:17.500Z,77.58
2019-04-04T23:10:49.072Z,77.27
2019-04-04T23:13:20.662Z,77.32
2019-04-04T23:15:52.256Z,77.14
2019-04-04T23:18:23.858Z,77.11
2019-04-04T23:20:55.437Z,77.14
2019-04-04T23:23:27.026Z,76.88
2019-04-04T23:25:58.611Z,76.64
2019-04-04T23:28:30.211Z,76.89
2019-04-04T23:31:01.824Z,76.80
2019-04-04T23:33:33.431Z,76.90
2019-04-04T23:36:06.827Z,76.93
2019-04-04T23:38:38.403Z,77.42
2019-04-04T23:41:10.013Z,77.80
2019-04-04T23:43:41.585Z,77.20
2019-04-04T23:46:13.162Z,77.89
2019-04-04T23:48:45.796Z,77.85
2019-04-04T23:51:17.384Z,77.89
2019-04-04T23:53:48.990Z,77.47
2019-04-04T23:56:20.575Z,77.17
2019-04-04T23:58:52.212Z,77.03
